Time;durP1;ratioP1;P1;durP2;ratioP2;P2;SDS_P1;SDS_P2;PMS_P1;PMS_P2;Temp;Humidity;BMP_temperature;BMP_pressure;BME280_temperature;BME280_humidity;BME280_pressure;Samples;Min_cycle;Max_cycle;Signal;HPM_P1;HPM_P2
2023/09/09 00:00:35;;;;;;;14.35;9.88;;;;;;;-144.73;100.00;54309.19;5039333;28;20025;-71
2023/09/09 00:03:00;;;;;;;12.98;9.93;;;;;;;-144.73;100.00;54264.03;5039655;28;20049;-70
2023/09/09 00:05:29;;;;;;;18.80;10.57;;;;;;;-144.73;100.00;54296.88;5040004;28;20032;-71
2023/09/09 00:07:55;;;;;;;12.65;9.52;;;;;;;-144.73;100.00;54255.81;5040075;28;20033;-71
2023/09/09 00:10:20;;;;;;;12.65;9.27;;;;;;;-144.73;100.00;54206.56;5040634;28;20496;-69
2023/09/09 00:12:46;;;;;;;19.67;9.30;;;;;;;-144.73;100.00;54259.91;5037902;28;20038;-70
2023/09/09 00:15:11;;;;;;;15.63;10.88;;;;;;;-144.73;100.00;54313.28;5038695;28;20071;-71
2023/09/09 00:17:37;;;;;;;13.50;10.48;;;;;;;-144.73;100.00;54255.81;5038887;28;20085;-70
2023/09/09 00:20:05;;;;;;;17.92;11.05;;;;;;;-144.73;100.00;54202.44;5039963;28;20423;-70
2023/09/09 00:22:31;;;;;;;19.10;11.10;;;;;;;-144.73;100.00;54284.56;5039854;28;20021;-70
2023/09/09 00:24:56;;;;;;;13.98;10.25;;;;;;;-144.73;100.00;54247.59;5040091;28;20028;-71
2023/09/09 00:27:22;;;;;;;18.73;10.88;;;;;;;-144.73;100.00;54268.13;5040762;28;20049;-70
2023/09/09 00:29:47;;;;;;;28.52;11.75;;;;;;;-144.73;100.00;54243.50;5039532;28;20112;-70
2023/09/09 00:32:12;;;;;;;15.38;10.18;;;;;;;-144.73;100.00;54243.50;5039990;28;20087;-70
2023/09/09 00:34:38;;;;;;;15.13;10.00;;;;;;;-144.73;100.00;54222.97;5039901;28;20057;-71
2023/09/09 00:37:03;;;;;;;16.77;10.82;;;;;;;-144.73;100.00;54251.72;5039634;28;20040;-70
2023/09/09 00:39:30;;;;;;;13.95;10.63;;;;;;;-144.73;100.00;54235.28;5039237;28;20033;-71
2023/09/09 00:41:55;;;;;;;13.60;10.18;;;;;;;-144.73;100.00;54288.66;5039831;28;20021;-71
2023/09/09 00:44:20;;;;;;;14.30;10.45;;;;;;;-144.73;100.00;54278.41;5039045;28;20063;-71
2023/09/09 00:46:46;;;;;;;25.65;11.68;;;;;;;-144.73;100.00;54268.13;5040221;28;20021;-70
2023/09/09 00:49:11;;;;;;;18.48;11.57;;;;;;;-144.73;100.00;54268.13;5039458;28;20037;-70
2023/09/09 00:51:37;;;;;;;14.30;10.65;;;;;;;-144.73;100.00;54300.97;5039856;28;20021;-71
2023/09/09 00:54:03;;;;;;;18.30;10.50;;;;;;;-144.73;100.00;54292.75;5039257;28;20038;-70
2023/09/09 00:56:32;;;;;;;14.70;10.35;;;;;;;-144.73;100.00;54235.28;5039794;28;20021;-71
2023/09/09 00:58:58;;;;;;;15.70;10.93;;;;;;;-144.73;100.00;54251.72;5040163;28;20034;-71
2023/09/09 01:01:23;;;;;;;13.32;9.27;;;;;;;-144.73;100.00;54292.75;5039436;28;20032;-71
2023/09/09 01:03:52;;;;;;;16.55;9.70;;;;;;;-144.73;100.00;54276.34;5038713;28;20033;-69
2023/09/09 01:06:20;;;;;;;13.75;9.63;;;;;;;-144.73;100.00;54268.13;5039284;28;20027;-70
2023/09/09 01:08:46;;;;;;;17.40;12.50;;;;;;;-144.73;100.00;54251.72;5038135;28;20045;-69
2023/09/09 01:11:11;;;;;;;24.48;11.73;;;;;;;-144.73;100.00;54296.88;5039693;28;20059;-69
2023/09/09 01:13:36;;;;;;;16.63;11.10;;;;;;;-144.73;100.00;54259.91;5039115;28;20048;-69
2023/09/09 01:16:02;;;;;;;21.40;11.27;;;;;;;-144.73;100.00;54296.88;5038542;28;20052;-69
2023/09/09 01:18:30;;;;;;;14.73;11.38;;;;;;;-144.73;100.00;54243.50;5039162;28;20066;-70
2023/09/09 01:21:08;;;;;;;15.60;10.50;;;;;;;-144.73;100.00;54276.34;5038693;28;20022;-70
2023/09/09 01:23:34;;;;;;;20.95;11.77;;;;;;;-144.73;100.00;54309.19;5038820;28;20060;-70
2023/09/09 01:25:59;;;;;;;15.05;11.10;;;;;;;-144.73;100.00;54241.44;5039098;28;20018;-70
2023/09/09 01:28:25;;;;;;;15.43;10.48;;;;;;;-144.73;100.00;54251.72;5038061;28;20040;-70
2023/09/09 01:30:50;;;;;;;12.90;10.07;;;;;;;-144.73;100.00;54268.13;5039511;28;20124;-70
2023/09/09 01:33:17;;;;;;;19.00;11.85;;;;;;;-144.73;100.00;54239.41;5037912;28;20044;-70
2023/09/09 01:35:42;;;;;;;13.75;9.85;;;;;;;-144.73;100.00;54305.06;5039292;28;20024;-70
2023/09/09 01:38:08;;;;;;;21.45;12.43;;;;;;;-144.73;100.00;54284.56;5038386;28;20026;-70
2023/09/09 01:40:33;;;;;;;17.95;11.52;;;;;;;-144.73;100.00;54276.34;5037869;28;20036;-70
2023/09/09 01:42:59;;;;;;;19.38;11.15;;;;;;;-144.73;100.00;54218.88;5037443;28;20117;-70
2023/09/09 01:45:24;;;;;;;18.17;11.00;;;;;;;-144.73;100.00;54251.72;5038036;28;20129;-70
2023/09/09 01:47:49;;;;;;;15.63;10.27;;;;;;;-144.73;100.00;54251.72;5037506;28;20100;-70
2023/09/09 01:50:15;;;;;;;14.93;10.98;;;;;;;-144.73;100.00;54276.34;5038708;28;20041;-70
2023/09/09 01:52:40;;;;;;;16.10;11.23;;;;;;;-144.73;100.00;54296.88;5037672;28;20032;-69
2023/09/09 01:55:06;;;;;;;18.08;10.95;;;;;;;-144.73;100.00;54276.34;5038511;28;20025;-69
2023/09/09 01:57:31;;;;;;;16.35;10.15;;;;;;;-144.73;100.00;54284.56;5037436;28;20048;-70
2023/09/09 01:59:58;;;;;;;17.90;10.98;;;;;;;-144.73;100.00;54276.34;5038756;28;20037;-70
2023/09/09 02:02:23;;;;;;;15.35;11.23;;;;;;;-144.73;100.00;54276.34;5039153;28;20033;-70
2023/09/09 02:04:49;;;;;;;15.43;11.48;;;;;;;-144.73;100.00;54309.19;5037582;28;20033;-69
2023/09/09 02:07:14;;;;;;;16.85;11.23;;;;;;;-144.73;100.00;54288.66;5038466;28;20067;-70
2023/09/09 02:09:41;;;;;;;15.60;12.07;;;;;;;-144.73;100.00;54276.34;5037338;28;20057;-69
2023/09/09 02:12:07;;;;;;;14.20;10.73;;;;;;;-144.73;100.00;54266.06;5039274;28;20472;-70
2023/09/09 02:14:32;;;;;;;15.13;11.38;;;;;;;-144.73;100.00;54305.06;5038491;28;20041;-69
2023/09/09 02:16:58;;;;;;;16.02;11.18;;;;;;;-144.73;100.00;54313.28;5037953;28;20053;-70
2023/09/09 02:19:23;;;;;;;16.05;11.82;;;;;;;-144.73;100.00;54284.56;5038338;28;20030;-69
2023/09/09 02:21:49;;;;;;;23.73;12.05;;;;;;;-144.73;100.00;54257.88;5037745;28;20087;-69
2023/09/09 02:24:14;;;;;;;16.42;11.68;;;;;;;-144.73;100.00;54276.34;5037784;28;20056;-70
2023/09/09 02:26:40;;;;;;;14.82;11.70;;;;;;;-144.73;100.00;54284.56;5038600;28;20029;-70
2023/09/09 02:29:05;;;;;;;17.20;12.57;;;;;;;-144.73;100.00;54292.75;5037880;28;20037;-70
2023/09/09 02:31:30;;;;;;;16.63;11.57;;;;;;;-144.73;100.00;54329.72;5038378;28;20018;-71
2023/09/09 02:33:56;;;;;;;13.00;10.70;;;;;;;-144.73;100.00;54280.44;5037551;28;20112;-70
2023/09/09 02:36:21;;;;;;;16.45;11.55;;;;;;;-144.73;100.00;54317.38;5038269;28;20160;-70
2023/09/09 02:38:47;;;;;;;16.15;12.00;;;;;;;-144.73;100.00;54333.81;5037224;28;20760;-71
2023/09/09 02:41:12;;;;;;;15.75;11.75;;;;;;;-144.73;100.00;54288.66;5038374;28;20029;-70
2023/09/09 02:43:38;;;;;;;18.17;11.50;;;;;;;-144.73;100.00;54284.56;5038077;28;20049;-70
2023/09/09 02:46:03;;;;;;;19.52;12.27;;;;;;;-144.73;100.00;54288.66;5037625;28;20044;-70
2023/09/09 02:48:29;;;;;;;16.73;11.23;;;;;;;-144.73;100.00;54282.50;5037642;28;20399;-70
2023/09/09 02:50:55;;;;;;;15.00;11.52;;;;;;;-144.73;100.00;54305.06;5038225;28;20028;-70
2023/09/09 02:53:21;;;;;;;16.13;12.30;;;;;;;-144.73;100.00;54288.66;5037787;28;20034;-70
2023/09/09 02:55:47;;;;;;;16.27;10.55;;;;;;;-144.73;100.00;54288.66;5038092;28;20491;-70
2023/09/09 02:58:14;;;;;;;21.52;11.52;;;;;;;-144.73;100.00;54337.91;5037837;28;20029;-70
2023/09/09 03:00:40;;;;;;;18.42;11.85;;;;;;;-144.73;100.00;54296.88;5038170;28;20112;-70
2023/09/09 03:03:06;;;;;;;15.35;11.65;;;;;;;-144.73;100.00;54284.56;5037581;28;20028;-70
2023/09/09 03:05:36;;;;;;;22.52;12.13;;;;;;;-144.73;100.00;54311.22;5038013;28;20045;-70
2023/09/09 03:08:02;;;;;;;18.27;11.63;;;;;;;-144.73;100.00;54333.81;5037160;28;20056;-70
2023/09/09 03:10:30;;;;;;;14.55;11.82;;;;;;;-144.73;100.00;54321.50;5041309;28;20097;-70
2023/09/09 03:12:57;;;;;;;16.40;11.50;;;;;;;-144.73;100.00;54356.38;5040871;28;20061;-70
2023/09/09 03:15:25;;;;;;;20.23;11.43;;;;;;;-144.73;100.00;54309.19;5040973;28;20045;-70
2023/09/09 03:17:51;;;;;;;16.15;11.00;;;;;;;-144.73;100.00;54317.38;5025364;28;20038;-70
2023/09/09 03:20:16;;;;;;;17.60;12.43;;;;;;;-144.73;100.00;54337.91;5021656;28;20048;-71
2023/09/09 03:22:42;;;;;;;21.90;11.70;;;;;;;-144.73;100.00;54292.75;5021184;28;20025;-70
2023/09/09 03:25:08;;;;;;;16.63;11.15;;;;;;;-144.73;100.00;54280.44;5021911;28;20021;-70
2023/09/09 03:27:34;;;;;;;18.23;10.68;;;;;;;-144.73;100.00;54296.88;5021331;28;20061;-70
2023/09/09 03:30:00;;;;;;;18.35;11.35;;;;;;;-144.73;100.00;54286.59;5021354;28;20072;-70
2023/09/09 03:32:25;;;;;;;15.05;10.90;;;;;;;-144.73;100.00;54305.06;5020902;28;20029;-70
2023/09/09 03:34:52;;;;;;;19.88;11.15;;;;;;;-144.73;100.00;54309.19;5024509;28;20067;-70
2023/09/09 03:37:17;;;;;;;18.25;10.98;;;;;;;-144.73;100.00;54298.91;5040867;28;20473;-70
2023/09/09 03:39:43;;;;;;;16.13;10.95;;;;;;;-144.73;100.00;54321.50;5040892;28;20040;-70
2023/09/09 03:42:08;;;;;;;22.38;10.27;;;;;;;-144.73;100.00;54317.38;5041664;28;20080;-70
2023/09/09 03:44:34;;;;;;;17.65;10.65;;;;;;;-144.73;100.00;54284.56;5039508;28;20059;-70
2023/09/09 03:46:59;;;;;;;15.23;11.13;;;;;;;-144.73;100.00;54280.44;5040793;28;20119;-70
2023/09/09 03:49:25;;;;;;;20.25;11.38;;;;;;;-144.73;100.00;54292.75;5041207;28;20044;-70
2023/09/09 03:51:51;;;;;;;19.00;12.32;;;;;;;-144.73;100.00;54323.53;5040509;28;20021;-70
2023/09/09 03:54:16;;;;;;;24.85;11.45;;;;;;;-144.73;100.00;54313.28;5039640;28;20033;-70
2023/09/09 03:56:42;;;;;;;16.17;12.45;;;;;;;-144.73;100.00;54333.81;5040579;28;20060;-70
2023/09/09 03:59:07;;;;;;;17.80;11.13;;;;;;;-144.73;100.00;54329.72;5040764;28;20061;-70
2023/09/09 04:01:33;;;;;;;18.08;11.48;;;;;;;-144.73;100.00;54296.88;5039921;28;20028;-70
2023/09/09 04:03:58;;;;;;;14.25;10.55;;;;;;;-144.73;100.00;54284.56;5039642;28;20480;-71
2023/09/09 04:06:24;;;;;;;16.77;12.85;;;;;;;-144.73;100.00;54292.75;5040226;28;20068;-71
2023/09/09 04:08:55;;;;;;;19.88;12.45;;;;;;;-144.73;100.00;54333.81;5040421;28;20033;-70
2023/09/09 04:11:21;;;;;;;19.45;12.43;;;;;;;-144.73;100.00;54321.50;5040339;28;20048;-70
2023/09/09 04:13:46;;;;;;;15.80;11.68;;;;;;;-144.73;100.00;54276.34;5039674;28;20033;-70
2023/09/09 04:16:11;;;;;;;20.13;12.35;;;;;;;-144.73;100.00;54298.91;5040434;28;20067;-70
2023/09/09 04:18:37;;;;;;;15.90;12.35;;;;;;;-144.73;100.00;54280.44;5039923;28;20060;-69
2023/09/09 04:21:02;;;;;;;18.23;11.02;;;;;;;-144.73;100.00;54300.97;5039142;28;20017;-70
2023/09/09 04:23:28;;;;;;;14.30;11.25;;;;;;;-144.73;100.00;54317.38;5038894;28;20088;-70
2023/09/09 04:25:53;;;;;;;17.75;11.98;;;;;;;-144.73;100.00;54356.38;5040562;28;20031;-69
2023/09/09 04:28:19;;;;;;;14.80;11.80;;;;;;;-144.73;100.00;54325.59;5040030;28;20030;-70
2023/09/09 04:30:45;;;;;;;16.95;12.40;;;;;;;-144.73;100.00;54321.50;5040302;28;20044;-70
2023/09/09 04:33:11;;;;;;;24.77;12.18;;;;;;;-144.73;100.00;54280.44;5040452;28;20038;-70
2023/09/09 04:35:39;;;;;;;19.35;12.05;;;;;;;-144.73;100.00;54294.81;5040705;28;20380;-71
2023/09/09 04:38:06;;;;;;;16.15;11.60;;;;;;;-144.73;100.00;54305.06;5040379;28;20116;-69
2023/09/09 04:40:32;;;;;;;17.50;12.68;;;;;;;-144.73;100.00;54346.13;5040096;28;20115;-70
2023/09/09 04:42:57;;;;;;;17.02;12.02;;;;;;;-144.73;100.00;54317.38;5040034;28;20037;-70
2023/09/09 04:45:23;;;;;;;15.68;11.98;;;;;;;-144.73;100.00;54282.50;5040541;28;20025;-69
2023/09/09 04:47:50;;;;;;;22.25;13.07;;;;;;;-144.73;100.00;54317.38;5039783;28;20030;-70
2023/09/09 04:50:16;;;;;;;18.25;13.40;;;;;;;-144.73;100.00;54329.72;5040958;28;20102;-70
2023/09/09 04:52:42;;;;;;;17.00;11.95;;;;;;;-144.73;100.00;54321.50;5039617;28;20021;-70
2023/09/09 04:55:08;;;;;;;19.13;11.57;;;;;;;-144.73;100.00;54321.50;5040285;28;20030;-71
2023/09/09 04:57:33;;;;;;;18.88;13.60;;;;;;;-144.73;100.00;54280.44;5040689;28;20021;-71
2023/09/09 04:59:58;;;;;;;18.90;12.90;;;;;;;-144.73;100.00;54329.72;5040595;28;20025;-70
2023/09/09 05:02:24;;;;;;;18.17;12.57;;;;;;;-144.73;100.00;54319.44;5040183;28;20037;-68
2023/09/09 05:04:50;;;;;;;17.10;13.45;;;;;;;-144.73;100.00;54362.53;5040315;28;20506;-72
2023/09/09 05:07:17;;;;;;;16.73;13.05;;;;;;;-144.73;100.00;54337.91;5040488;28;20025;-70
2023/09/09 05:09:42;;;;;;;25.90;13.45;;;;;;;-144.73;100.00;54309.19;5036849;28;20065;-74
2023/09/09 05:12:08;;;;;;;22.52;13.27;;;;;;;-144.73;100.00;54290.72;5027934;28;20065;-71
2023/09/09 05:14:33;;;;;;;22.25;13.27;;;;;;;-144.73;100.00;54300.97;5030560;28;20093;-70
2023/09/09 05:16:58;;;;;;;15.88;12.80;;;;;;;-144.73;100.00;54292.75;5031624;28;20061;-70
2023/09/09 05:19:24;;;;;;;15.07;11.45;;;;;;;-144.73;100.00;54313.28;5029603;28;20041;-70
2023/09/09 05:21:49;;;;;;;18.10;12.50;;;;;;;-144.73;100.00;54300.97;5029865;28;20029;-70
2023/09/09 05:24:15;;;;;;;16.27;12.75;;;;;;;-144.73;100.00;54313.28;5029771;28;20060;-70
2023/09/09 05:26:40;;;;;;;20.38;11.73;;;;;;;-144.73;100.00;54313.28;5030502;28;20061;-70
2023/09/09 05:29:09;;;;;;;18.48;12.38;;;;;;;-144.73;100.00;54309.19;5030221;28;20038;-72
2023/09/09 05:31:34;;;;;;;20.52;12.77;;;;;;;-144.73;100.00;54313.28;5028018;28;20115;-71
2023/09/09 05:33:59;;;;;;;16.58;11.13;;;;;;;-144.73;100.00;54333.81;5029986;28;20388;-71
2023/09/09 05:36:25;;;;;;;18.33;11.85;;;;;;;-144.73;100.00;54333.81;5030060;28;20103;-71
2023/09/09 05:38:50;;;;;;;19.90;11.90;;;;;;;-144.73;100.00;54329.72;5029612;28;20029;-71
2023/09/09 05:41:16;;;;;;;14.88;11.35;;;;;;;-144.73;100.00;54337.91;5030693;28;20091;-71
2023/09/09 05:43:41;;;;;;;16.08;11.10;;;;;;;-144.73;100.00;54358.44;5029870;28;20120;-69
2023/09/09 05:46:07;;;;;;;21.73;11.85;;;;;;;-144.73;100.00;54325.59;5029840;28;20029;-70
2023/09/09 05:48:32;;;;;;;19.00;11.75;;;;;;;-144.73;100.00;54317.38;5028555;28;20116;-70
2023/09/09 05:50:58;;;;;;;14.88;10.80;;;;;;;-144.73;100.00;54305.06;5029258;28;20105;-70
2023/09/09 05:53:26;;;;;;;18.15;12.23;;;;;;;-144.73;100.00;54346.13;5028585;28;20053;-70
2023/09/09 05:55:52;;;;;;;17.55;11.52;;;;;;;-144.73;100.00;54350.22;5029355;28;20080;-70
2023/09/09 05:58:17;;;;;;;21.15;10.80;;;;;;;-144.73;100.00;54329.72;5029540;28;20060;-69
2023/09/09 06:00:42;;;;;;;16.65;10.50;;;;;;;-144.73;100.00;54300.97;5030646;28;20071;-70
2023/09/09 06:03:08;;;;;;;14.68;11.32;;;;;;;-144.73;100.00;54280.44;5030357;28;20064;-71
2023/09/09 06:05:33;;;;;;;19.98;12.20;;;;;;;-144.73;100.00;54309.19;5027470;28;20041;-70
2023/09/09 06:07:58;;;;;;;21.60;11.13;;;;;;;-144.73;100.00;54323.53;5028758;28;20041;-70
2023/09/09 06:10:24;;;;;;;20.30;10.18;;;;;;;-144.73;100.00;54313.28;5029380;28;20128;-70
2023/09/09 06:12:52;;;;;;;20.70;11.48;;;;;;;-144.73;100.00;54358.44;5028821;28;20029;-70
2023/09/09 06:15:17;;;;;;;18.42;11.20;;;;;;;-144.73;100.00;54305.06;5029116;28;20104;-70
2023/09/09 06:17:45;;;;;;;25.30;10.98;;;;;;;-144.73;100.00;54292.75;5030056;28;20175;-71
2023/09/09 06:20:11;;;;;;;19.05;10.10;;;;;;;-144.73;100.00;54333.81;5025491;28;20114;-69
2023/09/09 06:22:36;;;;;;;17.42;11.10;;;;;;;-144.73;100.00;54333.81;5028593;28;20017;-69
2023/09/09 06:25:01;;;;;;;16.65;10.55;;;;;;;-144.73;100.00;54300.97;5029552;28;20056;-70
2023/09/09 06:27:27;;;;;;;22.23;12.35;;;;;;;-144.73;100.00;54321.50;5029868;28;20101;-70
2023/09/09 06:29:52;;;;;;;25.42;15.00;;;;;;;-144.73;100.00;54342.03;5030890;28;20037;-70
2023/09/09 06:32:21;;;;;;;14.68;10.57;;;;;;;-144.73;100.00;54342.03;5029518;28;20028;-69
2023/09/09 06:34:46;;;;;;;20.13;10.25;;;;;;;-144.73;100.00;54280.44;5028672;28;20050;-70
2023/09/09 06:37:12;;;;;;;14.57;10.05;;;;;;;-144.73;100.00;54342.03;5030290;28;20053;-70
2023/09/09 06:39:37;;;;;;;18.77;10.98;;;;;;;-144.73;100.00;54294.81;5021575;28;20029;-69
2023/09/09 06:42:03;;;;;;;18.35;9.65;;;;;;;-144.73;100.00;54317.38;5025359;28;20025;-70
2023/09/09 06:44:28;;;;;;;14.77;10.20;;;;;;;-144.73;100.00;54337.91;5032234;28;20042;-70
2023/09/09 06:46:54;;;;;;;14.35;10.07;;;;;;;-144.73;100.00;54317.38;5033423;28;20043;-70
2023/09/09 06:49:19;;;;;;;18.73;10.00;;;;;;;-144.73;100.00;54292.75;5030840;28;20061;-69
2023/09/09 06:51:45;;;;;;;17.50;10.40;;;;;;;-144.73;100.00;54280.44;5032158;28;20036;-70
2023/09/09 06:54:10;;;;;;;15.88;9.02;;;;;;;-144.73;100.00;54370.75;5031451;28;20120;-70
2023/09/09 06:56:36;;;;;;;21.75;11.43;;;;;;;-144.73;100.00;54313.28;5031814;28;20044;-70
2023/09/09 06:59:01;;;;;;;18.15;10.45;;;;;;;-144.73;100.00;54300.97;5033411;28;20044;-69
2023/09/09 07:01:27;;;;;;;15.50;9.73;;;;;;;-144.73;100.00;54313.28;5032406;28;20014;-70
2023/09/09 07:03:52;;;;;;;21.88;10.35;;;;;;;-144.73;100.00;54350.22;5032176;28;20096;-70
2023/09/09 07:06:17;;;;;;;20.52;9.52;;;;;;;-144.73;100.00;54307.13;5033319;28;20100;-70
2023/09/09 07:08:43;;;;;;;24.65;10.00;;;;;;;-144.73;100.00;54296.88;5032713;28;20033;-70
2023/09/09 07:11:09;;;;;;;18.33;10.20;;;;;;;-144.73;100.00;54325.59;5031627;28;20048;-70
2023/09/09 07:13:34;;;;;;;23.08;9.93;;;;;;;-144.73;100.00;54300.97;5032510;28;20100;-70
2023/09/09 07:15:59;;;;;;;17.15;10.05;;;;;;;-144.73;100.00;54317.38;5032722;28;20017;-70
2023/09/09 07:18:25;;;;;;;16.05;8.75;;;;;;;-144.73;100.00;54317.38;5031894;28;20045;-70
2023/09/09 07:20:50;;;;;;;17.02;9.13;;;;;;;-144.73;100.00;54313.28;5025666;28;20021;-70
2023/09/09 07:23:17;;;;;;;22.73;8.90;;;;;;;-144.73;100.00;54313.28;5025538;28;20107;-70
2023/09/09 07:25:43;;;;;;;16.60;9.05;;;;;;;-144.73;100.00;54292.75;5023798;28;20026;-70
2023/09/09 07:28:09;;;;;;;18.67;9.68;;;;;;;-144.73;100.00;54321.50;5029604;28;20033;-72
2023/09/09 07:30:35;;;;;;;19.92;8.93;;;;;;;-144.73;100.00;54309.19;5027010;28;20057;-70
2023/09/09 07:33:00;;;;;;;17.35;9.25;;;;;;;-144.73;100.00;54350.22;5026768;28;20072;-70
2023/09/09 07:35:26;;;;;;;20.17;8.32;;;;;;;-144.73;100.00;54251.72;5028713;28;20108;-70
2023/09/09 07:37:51;;;;;;;16.88;9.13;;;;;;;-144.73;100.00;54342.03;5026108;28;20120;-70
2023/09/09 07:40:17;;;;;;;16.58;9.27;;;;;;;-144.73;100.00;54276.34;5026238;28;20017;-70
2023/09/09 07:42:42;;;;;;;16.05;8.65;;;;;;;-144.73;100.00;54276.34;5026615;28;20044;-70
2023/09/09 07:45:08;;;;;;;21.23;9.07;;;;;;;-144.73;100.00;54268.13;5025819;28;20109;-70
2023/09/09 07:47:33;;;;;;;12.13;7.38;;;;;;;-144.73;100.00;54286.59;5029226;28;20087;-70
2023/09/09 07:49:59;;;;;;;14.02;8.27;;;;;;;-144.73;100.00;54268.13;5023190;28;20017;-71
2023/09/09 07:52:24;;;;;;;14.63;8.50;;;;;;;-144.73;100.00;54222.97;5024757;28;20085;-69
2023/09/09 07:54:51;;;;;;;16.38;8.55;;;;;;;-144.73;100.00;54296.88;5028205;28;20021;-71
2023/09/09 07:57:17;;;;;;;19.17;8.50;;;;;;;-144.73;100.00;54288.66;5027443;28;20027;-69
2023/09/09 07:59:42;;;;;;;13.90;8.38;;;;;;;-144.73;100.00;54303.03;5027945;28;20404;-70
2023/09/09 08:02:08;;;;;;;17.52;9.38;;;;;;;-144.73;100.00;54247.59;5023903;28;20036;-69
2023/09/09 08:04:33;;;;;;;15.82;9.40;;;;;;;-144.73;100.00;54280.44;5027054;28;20044;-69
2023/09/09 08:06:59;;;;;;;14.05;8.38;;;;;;;-144.73;100.00;54325.59;5025821;28;20053;-69
2023/09/09 08:09:26;;;;;;;17.55;8.50;;;;;;;-144.73;100.00;54280.44;5034710;28;20037;-70
2023/09/09 08:11:51;;;;;;;11.75;8.13;;;;;;;-144.73;100.00;54261.97;5036259;28;20021;-70
2023/09/09 08:14:18;;;;;;;15.73;7.93;;;;;;;-144.73;100.00;54233.25;5024390;28;20041;-70
2023/09/09 08:16:43;;;;;;;15.45;8.07;;;;;;;-144.73;100.00;54276.34;5026608;28;20759;-70
2023/09/09 08:19:09;;;;;;;13.70;8.32;;;;;;;-144.73;97.79;54268.13;5028462;28;20112;-71
2023/09/09 08:21:35;;;;;;;10.18;8.15;;;;;;;-144.73;98.17;54247.59;5022060;28;20116;-69
2023/09/09 08:24:00;;;;;;;10.95;7.65;;;;;;;-144.73;99.60;54239.41;5028239;28;20488;-71
2023/09/09 08:26:26;;;;;;;27.88;8.60;;;;;;;-144.73;97.39;54259.91;5030269;28;20037;-72
2023/09/09 08:28:52;;;;;;;16.85;8.57;;;;;;;-144.73;96.36;54276.34;5029543;28;20038;-71
2023/09/09 08:31:17;;;;;;;20.05;8.38;;;;;;;-144.73;96.43;54255.81;5028639;28;20026;-71
2023/09/09 08:33:42;;;;;;;11.93;7.60;;;;;;;-144.73;96.18;54337.91;5030165;28;20037;-71
2023/09/09 08:36:08;;;;;;;14.27;7.95;;;;;;;-144.73;91.41;54239.41;5029421;28;20475;-71
2023/09/09 08:38:33;;;;;;;19.45;7.90;;;;;;;-144.73;88.81;54235.28;5028771;28;20057;-71
2023/09/09 08:41:06;;;;;;;11.52;7.10;;;;;;;-144.73;88.94;54268.13;5029200;28;20041;-71
2023/09/09 08:44:18;;;;;;;17.58;8.18;;;;;;;-144.73;89.42;54261.97;5030397;28;20060;-71
2023/09/09 08:46:43;;;;;;;17.60;8.48;;;;;;;-144.73;88.04;54257.88;5019889;28;20033;-71
2023/09/09 08:49:13;;;;;;;16.20;8.20;;;;;;;-144.73;88.89;54247.59;5048031;28;20040;-71
2023/09/09 08:52:02;;;;;;;12.52;7.40;;;;;;;-144.73;87.73;54261.97;5049220;28;20021;-71
2023/09/09 08:54:27;;;;;;;21.60;8.13;;;;;;;-144.73;82.38;54247.59;5047816;28;20527;-71
2023/09/09 08:56:53;;;;;;;15.48;7.88;;;;;;;-144.73;81.15;54237.34;5048400;28;20040;-71
2023/09/09 08:59:21;;;;;;;22.83;7.55;;;;;;;-144.73;83.78;54237.34;5043229;28;20033;-71
2023/09/09 09:01:48;;;;;;;16.10;7.38;;;;;;;-144.73;85.15;54243.50;5048300;28;20028;-71
2023/09/09 09:04:15;;;;;;;16.73;8.45;;;;;;;-144.73;83.47;54237.34;5032535;28;20037;-71
2023/09/09 09:06:42;;;;;;;12.23;6.95;;;;;;;-144.73;83.20;54251.72;5029497;28;20029;-71
2023/09/09 09:09:07;;;;;;;14.43;8.65;;;;;;;-144.73;83.61;54280.44;5028498;28;20029;-71
2023/09/09 09:11:33;;;;;;;14.15;7.18;;;;;;;-144.73;79.48;54280.44;5028657;28;20064;-71
2023/09/09 09:14:10;;;;;;;15.73;7.95;;;;;;;-144.73;79.46;54292.75;5027066;28;20108;-71
2023/09/09 09:16:42;;;;;;;11.98;7.53;;;;;;;-144.73;79.05;54222.97;5027949;28;20107;-71
2023/09/09 09:19:27;;;;;;;13.77;7.43;;;;;;;-144.73;78.66;54214.78;5028027;28;20030;-72
2023/09/09 09:21:54;;;;;;;13.73;7.22;;;;;;;-144.73;76.08;54235.28;5028074;28;20025;-71
2023/09/09 09:24:27;;;;;;;14.98;7.35;;;;;;;-144.73;77.44;54227.09;5027592;28;20030;-72
2023/09/09 09:26:53;;;;;;;10.55;7.25;;;;;;;-144.73;75.85;54227.09;5029882;28;20511;-71
2023/09/09 09:29:19;;;;;;;14.50;7.63;;;;;;;-144.73;74.78;54214.78;5027730;28;20467;-72
2023/09/09 09:31:51;;;;;;;13.35;8.10;;;;;;;-144.73;71.36;54231.19;5028384;28;20152;-71
2023/09/09 09:34:18;;;;;;;13.65;6.97;;;;;;;-144.73;72.33;54220.94;5029261;28;20116;-71
2023/09/09 09:36:46;;;;;;;10.90;7.05;;;;;;;-144.73;71.32;54202.44;5028631;28;20061;-72
2023/09/09 09:39:15;;;;;;;16.48;7.05;;;;;;;-144.73;75.91;54227.09;5026886;28;20029;-71
2023/09/09 09:41:43;;;;;;;13.80;7.10;;;;;;;-144.73;72.24;54210.66;5029032;28;20034;-73
2023/09/09 09:44:19;;;;;;;14.80;7.43;;;;;;;-144.73;69.38;54255.81;5029029;28;20037;-72
2023/09/09 09:47:04;;;;;;;12.38;7.28;;;;;;;-144.73;66.24;54227.09;5027752;28;20037;-72
2023/09/09 09:49:36;;;;;;;18.55;6.28;;;;;;;-144.73;69.62;54181.94;5027848;28;20061;-72
2023/09/09 09:52:02;;;;;;;11.93;5.97;;;;;;;-144.73;70.09;54198.34;5027969;28;20032;-72
2023/09/09 09:54:29;;;;;;;21.25;6.45;;;;;;;-144.73;67.16;54218.88;5025583;28;20118;-72
2023/09/09 09:56:57;;;;;;;9.63;5.80;;;;;;;-144.73;63.29;54227.09;5025196;28;20075;-72
2023/09/09 09:59:23;;;;;;;14.68;6.18;;;;;;;-144.73;64.29;54198.34;5028509;28;20030;-73
2023/09/09 10:01:49;;;;;;;15.75;6.55;;;;;;;-144.73;64.26;54202.44;5027626;28;20021;-73
2023/09/09 10:04:18;;;;;;;13.73;6.05;;;;;;;-144.73;65.97;54194.25;5028617;28;20524;-73
2023/09/09 10:06:46;;;;;;;10.52;5.55;;;;;;;-144.73;63.21;54171.66;5029178;28;20029;-72
2023/09/09 10:09:23;;;;;;;16.15;6.10;;;;;;;-144.73;65.03;54210.66;5027780;28;20038;-73
2023/09/09 10:11:54;;;;;;;12.18;5.78;;;;;;;-144.73;62.83;54177.81;5028300;28;20021;-74
2023/09/09 10:14:24;;;;;;;12.55;5.45;;;;;;;-144.73;59.67;54214.78;5028047;28;20034;-72
2023/09/09 10:16:51;;;;;;;9.80;5.65;;;;;;;-144.73;61.63;54202.44;5028323;28;20064;-72
2023/09/09 10:19:19;;;;;;;7.80;6.15;;;;;;;-144.73;60.14;54177.81;5032149;28;20037;-73
2023/09/09 10:21:46;;;;;;;10.43;5.70;;;;;;;-144.73;60.08;54194.25;5032074;28;20036;-73
2023/09/09 10:24:14;;;;;;;23.08;5.57;;;;;;;-144.73;60.27;54194.25;5032706;28;20037;-73
2023/09/09 10:26:44;;;;;;;10.55;5.72;;;;;;;-144.73;62.23;54194.25;5031842;28;20022;-73
2023/09/09 10:29:10;;;;;;;8.98;5.25;;;;;;;-144.73;59.05;54186.03;5030752;28;20041;-73
2023/09/09 10:31:36;;;;;;;21.65;5.70;;;;;;;-144.73;60.62;54177.81;5032683;28;20087;-73
2023/09/09 10:34:02;;;;;;;12.20;5.70;;;;;;;-144.73;59.40;54214.78;5031576;28;20040;-73
2023/09/09 10:36:31;;;;;;;8.70;5.60;;;;;;;-144.73;60.30;54198.34;5006947;28;20040;-73
2023/09/09 10:38:56;;;;;;;11.63;6.22;;;;;;;-144.73;58.14;54175.78;5032941;28;20025;-73
2023/09/09 10:41:22;;;;;;;11.07;5.90;;;;;;;-144.73;58.98;54188.09;5031867;28;20029;-74
2023/09/09 10:44:31;;;;;;;10.20;6.18;;;;;;;-144.73;57.97;54181.94;5032776;28;20125;-73
2023/09/09 10:47:08;;;;;;;29.58;6.10;;;;;;;-144.73;56.87;54198.34;5022754;28;20044;-74
2023/09/09 10:50:03;;;;;;;12.25;5.72;;;;;;;-144.73;56.63;54165.50;5031636;28;20484;-72
2023/09/09 10:52:33;;;;;;;13.73;6.05;;;;;;;-144.73;55.02;54192.19;5035756;28;20040;-72
2023/09/09 10:55:14;;;;;;;9.68;5.80;;;;;;;-144.73;54.68;54181.94;5035483;28;20038;-72
2023/09/09 10:57:40;;;;;;;10.63;5.40;;;;;;;-144.73;57.34;54157.31;5036652;28;20028;-72